KISP/ISP METAR and TAF weather

Enter ICAO airport designator
Station Type Date Time Source
KISP METAR 2019/04/25 11:56 UTC NOAA

KISP 251156Z 01007KT 10SM FEW130 SCT180 BKN250 10/02 A2998 RMK AO2 SLP152 T01000022 10100 20078 51025 $


Station Type Date Time Source
KISP Decoded METAR 2019/04/25 11:56 UTC NOAA

ISLIP LONG ISLAND MAC ART, NY, United States (KISP) 40-48N 073-06W 43M
Apr 25, 2019 - 07:56 AM EDT / 2019.04.25 1156 UTC
Wind: from the N (010 degrees) at 8 MPH (7 KT):0
Visibility: 10 mile(s):0
Sky conditions: mostly cloudy
Temperature: 50.0 F (10.0 C)
Dew Point: 36.0 F (2.2 C)
Relative Humidity: 58%
Pressure (altimeter): 29.98 in. Hg (1015 hPa)
Pressure tendency: 0.07 inches (2.5 hPa) higher than three hours ago
ob: KISP 251156Z 01007KT 10SM FEW130 SCT180 BKN250 10/02 A2998 RMK AO2 SLP152 T01000022 10100 20078 51025
cycle: 12

Station Type Date Time Source
KISP TAF 2019/04/25 12:42 UTC NOAA

TAF KISP 251140Z 2512/2612 01006KT P6SM SCT200 BKN250
FM251400 VRB04KT P6SM SCT028 SCT250
FM251700 19009KT P6SM SCT250
FM252300 19007KT P6SM BKN100
FM260000 18006KT P6SM BKN090 PROB30 2602/2604 3SM -RA OVC050
FM260400 15004KT P6SM BKN060 PROB30 2604/2608 3SM -RA OVC050
FM260800 11007KT P6SM BKN045 PROB30 2608/2610 5SM -RA OVC035
FM261000 11008KT 6SM -RA OVC030

Example: see airport list